Aérodrome :
LOGIN :

S'inscrire | Disclaimer

   EN    FR    IT 

 










Légende :    VFR   VFR Marginal   IFR   IFR Intensif   IFR Très Intensif
Visi : 
Plafond : 
>= 8 km
>= 3000ft
5 à 8 km
1000 à 3000 ft
1500m à 5 km
500 à 1000 ft
800 à 1500m
200 à 500 ft
< 800m
< 200 ft
Symboles :   Orages  Brouillard  Fortes neiges  Fortes précipitations  Vent > 20 kt
SIGMETs :   Divers  Orages  Givrage  Turbulence  Onde Orograph.  Cendres Volcan.







- Altitude de l'aérodrome : -15 ft
- Code IATA : RTM


EHRD - Rotterdam Zestienhoven

DERNIER METAR :
  • 240425Z AUTO 24007KT 9999 OVC019 17/15 Q1014 NOSIG

METARs EXPIRÉS :
  • 240355Z AUTO 25007KT 9999 NSC 17/15 Q1013 NOSIG
  • 240325Z AUTO 24008KT 9999 FEW046 17/15 Q1013 NOSIG
  • 240255Z AUTO 24008KT 9999 FEW035 SCT042 18/15 Q1013 NOSIG
  • 240225Z AUTO 24009KT 9999 FEW034 18/15 Q1013 NOSIG
  • 240155Z AUTO 24010KT 9999 NSC 18/15 Q1013 NOSIG

TAF TAF EHRD
Valide du 24 à 00h jusqu'au 25 à 06h UTC


232238Z 2400/2506 25006KT 9999 SCT030
BECMG 2408/2411 26011KT
BECMG 2416/2419 23005KT CAVOK
TEMPO 2501/2506 3500 MIFG
PROB30 2501/2506 1500 BCFG
Pas de NOTAMs connus pour ce terrain.



MET'MAP, la Météo Aéronautique d'un coup d'oeil ! - Copyright ORBIFLY Décembre 2007 - Disclaimer

ORBIFLY MET'MAP TEAM :

Programmation & Développement : Alexandra Zaïnal
Conception & Développement : Baudouin d'Aumeries
Co-Programmation & Développement : Marc-Olivier Méhu
Soutien technique & logistique : Manuel Goepfert

Contact : metmap@orbifly.com




SOURCES & CREDITS :

   NOAA